Time;durP1;ratioP1;P1;durP2;ratioP2;P2;SDS_P1;SDS_P2;PMS_P1;PMS_P2;Temp;Humidity;BMP_temperature;BMP_pressure;BME280_temperature;BME280_humidity;BME280_pressure;Samples;Min_cycle;Max_cycle;Signal;HPM_P1;HPM_P2
2022/12/10 00:01:47;;;;;;;0.63;0.63;;;-0.80;99.90;;;;;;6189209;23;20013;-88
2022/12/10 00:04:14;;;;;;;3.30;0.93;;;-0.80;99.90;;;;;;6213671;23;20322;-89
2022/12/10 00:06:41;;;;;;;2.55;0.50;;;-0.60;99.90;;;;;;6189575;23;20020;-88
2022/12/10 00:09:11;;;;;;;0.95;0.95;;;-2.00;99.90;;;;;;6189563;23;20016;-89
2022/12/10 00:11:38;;;;;;;1.90;0.65;;;-0.80;99.90;;;;;;6189355;23;20103;-89
2022/12/10 00:14:04;;;;;;;4.95;1.23;;;-1.90;99.90;;;;;;6189244;23;20017;-89
2022/12/10 00:16:30;;;;;;;0.33;0.33;;;-0.50;99.90;;;;;;6164444;23;20043;-89
2022/12/10 00:18:56;;;;;;;3.00;1.20;;;-0.30;99.90;;;;;;6189426;23;20099;-88
2022/12/10 00:21:28;;;;;;;3.72;0.75;;;-1.80;99.90;;;;;;6164375;23;20078;-89
2022/12/10 00:23:55;;;;;;;1.23;0.90;;;-1.40;99.90;;;;;;6189750;23;20091;-89
2022/12/10 00:26:35;;;;;;;1.40;0.73;;;-1.70;99.90;;;;;;6213711;23;20075;-89
2022/12/10 00:29:03;;;;;;;4.00;1.10;;;-1.70;99.90;;;;;;6188975;23;20017;-90
2022/12/10 00:31:31;;;;;;;2.50;0.85;;;-0.80;99.90;;;;;;6188059;23;20337;-89
2022/12/10 00:34:00;;;;;;;3.20;2.78;;;-0.30;99.90;;;;;;6189536;23;20020;-89
2022/12/10 00:36:32;;;;;;;1.23;1.23;;;-1.70;99.90;;;;;;6188352;23;20091;-89
2022/12/10 00:39:00;;;;;;;1.65;0.90;;;-1.70;99.90;;;;;;6188955;23;20021;-89
2022/12/10 00:41:26;;;;;;;1.73;0.82;;;-1.80;99.90;;;;;;6164835;23;20026;-89
2022/12/10 00:43:52;;;;;;;0.67;0.67;;;-1.70;99.90;;;;;;6189265;23;20020;-89
2022/12/10 00:46:18;;;;;;;4.80;1.10;;;-1.40;99.90;;;;;;6164102;23;20074;-90
2022/12/10 00:48:45;;;;;;;3.80;1.52;;;-1.80;99.90;;;;;;6189063;23;20020;-88
2022/12/10 00:51:13;;;;;;;1.60;0.60;;;-0.60;99.90;;;;;;6214487;23;20017;-89
2022/12/10 00:53:42;;;;;;;1.10;0.45;;;-1.80;99.90;;;;;;6213438;23;20023;-88
2022/12/10 00:56:10;;;;;;;0.95;0.60;;;-0.60;99.90;;;;;;6189031;23;20021;-89
2022/12/10 00:58:37;;;;;;;0.15;0.15;;;-1.70;99.90;;;;;;6213245;23;20012;-89
2022/12/10 01:01:12;;;;;;;1.85;1.45;;;-1.00;99.90;;;;;;6214035;23;20341;-88
2022/12/10 01:03:38;;;;;;;11.75;2.42;;;-1.80;99.90;;;;;;6213767;23;20315;-88
2022/12/10 01:06:12;;;;;;;4.53;1.80;;;-1.80;99.90;;;;;;6164476;23;20013;-88
2022/12/10 01:08:38;;;;;;;1.40;0.47;;;-1.80;99.90;;;;;;6213687;23;20450;-88
2022/12/10 01:11:04;;;;;;;2.10;1.55;;;-1.80;99.90;;;;;;6164762;23;20026;-92
2022/12/10 01:13:32;;;;;;;4.43;1.77;;;-1.00;99.90;;;;;;6164194;23;20018;-92
2022/12/10 01:16:16;;;;;;;5.85;1.27;;;-1.40;99.90;;;;;;6165995;23;20104;-92
2022/12/10 01:19:00;;;;;;;4.68;1.75;;;-1.80;99.90;;;;;;6188933;23;20055;-93
2022/12/10 01:21:30;;;;;;;3.42;1.02;;;-0.50;99.90;;;;;;6188592;23;20497;-92
2022/12/10 01:23:57;;;;;;;3.88;1.25;;;-0.70;99.90;;;;;;6189041;23;20051;-92
2022/12/10 01:26:31;;;;;;;2.38;2.17;;;-0.80;99.90;;;;;;6189246;23;20048;-92
2022/12/10 01:29:00;;;;;;;1.75;0.68;;;-1.10;99.90;;;;;;6189900;23;20378;-93
2022/12/10 01:31:36;;;;;;;1.55;0.50;;;-1.60;99.90;;;;;;6188552;23;20055;-94
2022/12/10 01:34:05;;;;;;;2.20;0.50;;;-2.10;99.90;;;;;;6189328;23;20258;-93
2022/12/10 01:36:39;;;;;;;0.82;0.47;;;-2.10;99.90;;;;;;6213850;23;20021;-94
2022/12/10 01:39:12;;;;;;;0.20;0.20;;;-1.00;99.90;;;;;;6188884;23;20017;-93
2022/12/10 01:41:50;;;;;;;2.40;1.33;;;-1.60;99.90;;;;;;6213909;23;20013;-93
2022/12/10 01:44:21;;;;;;;4.90;0.75;;;-2.20;99.90;;;;;;6213878;23;20013;-93
2022/12/10 01:47:06;;;;;;;2.00;0.70;;;-1.00;99.90;;;;;;6188558;23;20016;-93
2022/12/10 01:49:39;;;;;;;1.13;0.82;;;-2.20;99.90;;;;;;6188892;23;20020;-93
2022/12/10 01:52:10;;;;;;;2.08;1.10;;;-2.10;99.90;;;;;;6188959;23;20020;-92
2022/12/10 01:54:46;;;;;;;1.83;1.13;;;-0.90;99.90;;;;;;6188732;23;20110;-93
2022/12/10 01:57:30;;;;;;;1.77;0.93;;;-0.90;99.90;;;;;;6213659;23;20021;-93
2022/12/10 02:00:06;;;;;;;1.77;1.40;;;-0.80;99.90;;;;;;6188949;23;20024;-93
2022/12/10 02:03:00;;;;;;;0.77;0.32;;;-2.10;99.90;;;;;;6189442;23;20027;-94
2022/12/10 02:05:43;;;;;;;0.65;0.65;;;-2.20;99.90;;;;;;6189161;23;20016;-93
2022/12/10 02:08:34;;;;;;;3.85;0.68;;;-2.20;99.90;;;;;;6190557;23;20020;-93
2022/12/10 02:11:11;;;;;;;3.20;0.82;;;-2.20;99.90;;;;;;6189519;23;20017;-93
2022/12/10 02:13:57;;;;;;;0.55;0.55;;;-2.20;99.90;;;;;;6213520;23;20027;-94
2022/12/10 02:16:39;;;;;;;1.33;0.68;;;-3.10;99.90;;;;;;6188663;23;20020;-94
2022/12/10 02:19:56;;;;;;;2.28;0.98;;;-1.80;99.90;;;;;;6188912;23;20020;-93
2022/12/10 02:22:25;;;;;;;3.17;1.15;;;-2.30;99.90;;;;;;6127758;23;20052;-93
2022/12/10 02:24:52;;;;;;;6.15;1.27;;;-1.40;99.90;;;;;;6188840;23;20099;-93
2022/12/10 02:27:33;;;;;;;1.55;0.47;;;-1.40;99.90;;;;;;6214250;23;20099;-93
2022/12/10 02:30:03;;;;;;;2.10;1.17;;;-2.90;99.90;;;;;;6188785;23;20016;-94
2022/12/10 02:32:55;;;;;;;1.42;0.82;;;-1.30;99.90;;;;;;6189207;23;20020;-93
2022/12/10 02:35:40;;;;;;;2.33;2.10;;;-2.10;99.90;;;;;;6189348;23;20437;-94
2022/12/10 02:38:34;;;;;;;1.88;1.65;;;-1.20;99.90;;;;;;6189029;23;20020;-93
2022/12/10 02:41:19;;;;;;;1.27;0.40;;;-1.70;99.90;;;;;;6184521;23;20020;-94
2022/12/10 02:43:53;;;;;;;3.60;1.23;;;-2.70;99.90;;;;;;6188837;23;20016;-94
2022/12/10 02:46:28;;;;;;;2.38;1.20;;;-2.30;99.90;;;;;;6189374;23;20503;-94
2022/12/10 02:49:00;;;;;;;1.45;0.93;;;-1.10;99.90;;;;;;6213982;23;20100;-94
2022/12/10 02:51:26;;;;;;;2.63;1.20;;;-1.30;99.90;;;;;;6189536;23;20450;-94
2022/12/10 02:54:07;;;;;;;4.67;0.53;;;-1.00;99.90;;;;;;6189568;23;20059;-94
2022/12/10 02:56:46;;;;;;;2.97;1.63;;;-1.00;99.90;;;;;;6190605;23;20020;-94
2022/12/10 02:59:45;;;;;;;4.32;0.75;;;-2.40;99.90;;;;;;6191131;23;20128;-94
2022/12/10 03:02:16;;;;;;;;;;;-2.70;99.90;;;;;;6191653;23;20028;-94
2022/12/10 03:05:13;;;;;;;4.40;0.88;;;-1.40;99.90;;;;;;6191025;23;19920;-94
2022/12/10 03:07:55;;;;;;;1.33;1.23;;;-2.50;99.90;;;;;;6191205;23;20338;-94
2022/12/10 03:10:27;;;;;;;6.35;1.13;;;-2.40;99.90;;;;;;6191335;23;20342;-93
2022/12/10 03:13:00;;;;;;;4.05;0.90;;;-1.90;99.90;;;;;;6190676;23;20012;-94
2022/12/10 03:15:41;;;;;;;3.92;1.10;;;-1.90;99.90;;;;;;6190980;23;20017;-94
2022/12/10 03:18:18;;;;;;;7.53;1.95;;;-2.50;99.90;;;;;;6191417;23;20024;-93
2022/12/10 03:20:51;;;;;;;1.05;0.95;;;-1.50;99.90;;;;;;6190671;23;20063;-94
2022/12/10 03:23:32;;;;;;;;;;;;;;;;;;;;;
2022/12/10 03:26:17;;;;;;;4.32;1.20;;;-1.70;99.90;;;;;;6215751;23;20390;-94
2022/12/10 03:29:17;;;;;;;;;;;;;;;;;;;;;
2022/12/10 03:31:47;;;;;;;1.00;0.55;;;-1.30;99.90;;;;;;6204226;23;20039;-94
2022/12/10 03:34:18;;;;;;;1.90;0.90;;;-1.70;99.90;;;;;;6166315;23;20017;-94
2022/12/10 03:36:50;;;;;;;1.70;1.25;;;-1.70;99.90;;;;;;6190947;23;20016;-94
2022/12/10 03:39:19;;;;;;;0.70;0.50;;;-1.80;99.90;;;;;;6216073;23;20024;-94
2022/12/10 03:41:47;;;;;;;4.38;1.33;;;-2.10;99.90;;;;;;6190411;23;20023;-95
2022/12/10 03:44:30;;;;;;;2.92;1.48;;;-1.30;99.90;;;;;;6190841;23;20028;-95
2022/12/10 03:47:08;;;;;;;2.63;1.13;;;-2.70;99.90;;;;;;6191125;23;20024;-95
2022/12/10 03:49:34;;;;;;;1.58;0.63;;;-1.80;99.90;;;;;;6190787;23;20052;-94
2022/12/10 03:52:05;;;;;;;6.00;2.92;;;-2.70;99.90;;;;;;6190440;23;20147;-94
2022/12/10 03:54:36;;;;;;;2.17;0.60;;;-2.70;99.90;;;;;;6190914;23;20013;-94
2022/12/10 03:57:02;;;;;;;4.15;1.05;;;-3.50;99.90;;;;;;6190625;23;20020;-95
2022/12/10 03:59:31;;;;;;;3.97;1.40;;;-2.90;99.90;;;;;;6190306;23;20074;-95
2022/12/10 04:02:06;;;;;;;0.85;0.77;;;-3.00;99.90;;;;;;6190782;23;20048;-95
2022/12/10 04:04:32;;;;;;;2.88;1.02;;;-1.90;99.90;;;;;;6166339;23;20099;-96
2022/12/10 04:07:01;;;;;;;1.83;1.00;;;-2.30;99.90;;;;;;6189297;23;20047;-95
2022/12/10 04:09:27;;;;;;;3.42;0.50;;;-1.90;99.90;;;;;;6166156;23;20016;-94
2022/12/10 04:12:04;;;;;;;0.70;0.60;;;-3.80;99.90;;;;;;6190083;23;20345;-94
2022/12/10 04:17:27;;;;;;;;;;;;;;;;;;;;;
2022/12/10 04:19:53;;;;;;;5.93;1.85;;;-1.10;99.90;;;;;;6215323;23;20024;-95
2022/12/10 04:28:06;;;;;;;0.77;0.77;;;-2.90;99.90;;;;;;6193831;23;20020;-94
2022/12/10 04:30:34;;;;;;;4.75;0.80;;;-1.70;99.90;;;;;;6190322;23;20095;-95
2022/12/10 04:33:02;;;;;;;5.57;2.38;;;-2.10;99.90;;;;;;6165224;23;20052;-94
2022/12/10 04:35:28;;;;;;;3.60;1.88;;;-1.60;99.90;;;;;;6189403;23;20039;-94
2022/12/10 04:37:58;;;;;;;2.63;2.50;;;-1.60;99.90;;;;;;6165252;23;20445;-93
2022/12/10 04:40:26;;;;;;;1.45;0.90;;;-2.80;99.90;;;;;;6166186;23;20027;-94
2022/12/10 04:43:07;;;;;;;;;;;;;;;;;;;;;
2022/12/10 04:45:36;;;;;;;0.10;0.10;;;-1.60;99.90;;;;;;6192532;23;20013;-94
2022/12/10 04:48:10;;;;;;;1.48;1.42;;;-2.20;99.90;;;;;;6189578;23;20389;-94
2022/12/10 04:50:41;;;;;;;0.55;0.40;;;-3.70;99.90;;;;;;6190429;23;20028;-95
2022/12/10 04:53:10;;;;;;;4.68;1.98;;;-3.70;99.90;;;;;;6215091;23;20346;-95
2022/12/10 04:55:41;;;;;;;1.15;1.00;;;-2.40;99.90;;;;;;6166095;23;20016;-95
2022/12/10 04:58:17;;;;;;;1.08;0.70;;;-1.60;99.90;;;;;;6165327;23;20457;-94
2022/12/10 05:00:56;;;;;;;1.58;0.73;;;-3.60;99.90;;;;;;6215344;23;20013;-94
2022/12/10 05:03:25;;;;;;;4.45;1.90;;;-1.60;99.90;;;;;;6189958;23;20206;-95
2022/12/10 05:05:56;;;;;;;2.60;1.35;;;-2.90;99.90;;;;;;6189795;23;20016;-95
2022/12/10 05:08:28;;;;;;;1.83;1.70;;;-3.00;99.90;;;;;;6167228;23;20020;-94
2022/12/10 05:11:10;;;;;;;1.40;1.17;;;-2.90;99.90;;;;;;6190314;23;20104;-95
2022/12/10 05:13:36;;;;;;;0.63;0.60;;;-3.00;99.90;;;;;;6168167;23;20469;-94
2022/12/10 05:16:04;;;;;;;1.25;0.80;;;-2.30;99.90;;;;;;6189768;23;20025;-94
2022/12/10 05:18:53;;;;;;;1.38;1.02;;;-2.90;99.90;;;;;;6189892;23;20441;-95
2022/12/10 05:21:30;;;;;;;;;;;;;;;;;;;;;
2022/12/10 05:23:59;;;;;;;3.00;1.38;;;-3.00;99.90;;;;;;6214899;23;20017;-95
2022/12/10 05:26:25;;;;;;;1.98;0.73;;;-1.70;99.90;;;;;;6189506;23;20519;-95
2022/12/10 05:28:55;;;;;;;2.67;0.57;;;-1.80;99.90;;;;;;6189544;23;20017;-95
2022/12/10 05:31:31;;;;;;;4.55;1.27;;;-2.60;99.90;;;;;;6189547;23;20609;-94
2022/12/10 05:34:12;;;;;;;0.47;0.47;;;-3.00;99.90;;;;;;6191385;23;20020;-94
2022/12/10 05:36:40;;;;;;;0.50;0.50;;;-4.00;99.90;;;;;;6190560;23;20023;-95
2022/12/10 05:39:09;;;;;;;1.73;1.02;;;-3.70;99.90;;;;;;6189218;23;20079;-95
2022/12/10 05:41:47;;;;;;;;;;;;;;;;;;;;;
2022/12/10 05:44:16;;;;;;;0.55;0.55;;;-3.20;99.90;;;;;;6214391;23;20091;-95
2022/12/10 05:46:48;;;;;;;1.05;0.68;;;-2.50;99.90;;;;;;6189549;23;20029;-95
2022/12/10 05:49:23;;;;;;;3.08;0.80;;;-2.50;99.90;;;;;;6164455;23;20020;-94
2022/12/10 05:51:49;;;;;;;3.65;1.08;;;-1.90;99.90;;;;;;6165687;23;20016;-94
2022/12/10 05:54:20;;;;;;;1.00;0.90;;;-1.70;99.90;;;;;;6189855;23;20344;-95
2022/12/10 05:56:56;;;;;;;3.35;0.77;;;-2.20;99.90;;;;;;6164885;23;20020;-93
2022/12/10 05:59:52;;;;;;;1.10;0.25;;;-3.80;99.90;;;;;;6189291;23;20095;-95
2022/12/10 06:05:07;;;;;;;1.75;0.95;;;-3.40;99.90;;;;;;6214257;23;20020;-93
2022/12/10 06:07:45;;;;;;;3.13;1.25;;;-4.00;99.90;;;;;;6164990;23;20021;-95
2022/12/10 06:10:13;;;;;;;1.55;0.65;;;-1.80;99.90;;;;;;6165957;23;20461;-95
2022/12/10 06:12:44;;;;;;;4.55;0.63;;;-2.10;99.90;;;;;;6188335;23;20028;-95
2022/12/10 06:15:18;;;;;;;4.47;0.68;;;-3.30;99.90;;;;;;6188430;23;20016;-93
2022/12/10 06:17:53;;;;;;;3.03;0.85;;;-1.80;99.90;;;;;;6190922;23;20459;-94
2022/12/10 06:20:29;;;;;;;1.40;1.02;;;-2.20;99.90;;;;;;6189377;23;20017;-96
2022/12/10 06:22:57;;;;;;;1.45;0.95;;;-3.10;99.90;;;;;;6189411;23;20016;-94
2022/12/10 06:25:23;;;;;;;0.75;0.75;;;-2.80;99.90;;;;;;6189133;23;20023;-94
2022/12/10 06:27:52;;;;;;;3.10;0.90;;;-3.60;99.90;;;;;;6188788;23;20048;-95
2022/12/10 06:30:21;;;;;;;2.72;1.25;;;-3.00;99.90;;;;;;6164097;23;20017;-95
2022/12/10 06:32:46;;;;;;;2.75;1.52;;;-3.00;99.90;;;;;;6188583;23;20035;-95
2022/12/10 06:35:12;;;;;;;6.20;1.43;;;-2.20;99.90;;;;;;6212439;23;20052;-94
2022/12/10 06:37:40;;;;;;;7.03;2.50;;;-2.30;99.90;;;;;;6188871;23;20017;-94
2022/12/10 06:40:10;;;;;;;0.32;0.32;;;-3.00;99.90;;;;;;6189266;23;20095;-94
2022/12/10 06:42:41;;;;;;;0.70;0.70;;;-3.00;99.90;;;;;;6188895;23;20017;-93
2022/12/10 06:45:12;;;;;;;1.88;1.42;;;-3.10;99.90;;;;;;6165915;23;20516;-94
2022/12/10 06:47:40;;;;;;;3.30;0.30;;;-2.90;99.90;;;;;;6164399;23;20021;-95
2022/12/10 06:50:09;;;;;;;0.50;0.47;;;-3.50;99.90;;;;;;6189063;23;20021;-94
2022/12/10 06:52:35;;;;;;;1.15;0.65;;;-2.80;99.90;;;;;;6164816;23;20016;-94
2022/12/10 06:55:00;;;;;;;2.90;0.57;;;-3.00;99.90;;;;;;6214681;23;20067;-94
2022/12/10 06:57:47;;;;;;;1.93;1.10;;;-2.00;99.90;;;;;;6189571;23;20453;-94
2022/12/10 07:00:20;;;;;;;1.55;1.25;;;-2.00;99.90;;;;;;6213632;23;20024;-93
2022/12/10 07:02:52;;;;;;;0.20;0.20;;;-2.70;99.90;;;;;;6189750;23;20020;-95
2022/12/10 07:05:20;;;;;;;1.45;0.88;;;-1.60;99.90;;;;;;6188645;23;20502;-94
2022/12/10 07:07:46;;;;;;;1.63;0.60;;;-1.40;99.90;;;;;;6189200;23;20017;-95
2022/12/10 07:10:25;;;;;;;0.73;0.70;;;-1.70;99.90;;;;;;6189781;23;20123;-94
2022/12/10 07:12:56;;;;;;;1.67;0.57;;;-2.60;99.90;;;;;;6189842;23;20028;-95
2022/12/10 07:15:27;;;;;;;0.45;0.40;;;-2.70;99.90;;;;;;6189124;23;20056;-94
2022/12/10 07:17:55;;;;;;;2.72;0.65;;;-1.70;99.90;;;;;;6165396;23;20025;-94
2022/12/10 07:20:21;;;;;;;1.73;1.63;;;-1.50;99.90;;;;;;6188904;23;20023;-95
2022/12/10 07:22:49;;;;;;;1.57;0.87;;;-1.80;99.90;;;;;;6189846;23;20016;-95
2022/12/10 07:25:18;;;;;;;0.20;0.20;;;-1.70;99.90;;;;;;6164495;23;20323;-95
2022/12/10 07:27:51;;;;;;;0.95;0.65;;;-2.50;99.90;;;;;;6190189;23;20074;-94
2022/12/10 07:30:23;;;;;;;5.32;0.57;;;-3.10;99.90;;;;;;6186775;23;20016;-91
2022/12/10 07:32:48;;;;;;;2.67;1.83;;;-1.40;99.90;;;;;;6186409;23;20012;-94
2022/12/10 07:35:14;;;;;;;2.90;1.10;;;-2.10;99.90;;;;;;6212638;23;20092;-95
2022/12/10 07:37:40;;;;;;;4.35;0.93;;;-1.80;99.90;;;;;;6214032;23;20017;-94
2022/12/10 07:40:06;;;;;;;0.43;0.27;;;-2.50;99.90;;;;;;6191796;23;20017;-95
2022/12/10 07:42:32;;;;;;;1.02;1.00;;;-2.60;99.90;;;;;;6190819;23;20327;-87
2022/12/10 07:45:00;;;;;;;0.97;0.93;;;-2.40;99.90;;;;;;6190356;23;20075;-90
2022/12/10 07:47:37;;;;;;;0.50;0.50;;;-3.30;99.90;;;;;;6189729;23;20467;-89
2022/12/10 07:50:03;;;;;;;1.45;1.35;;;-3.20;99.90;;;;;;6166798;23;20055;-88
2022/12/10 07:52:29;;;;;;;0.68;0.65;;;-2.50;99.90;;;;;;6189181;23;20039;-88
2022/12/10 07:54:54;;;;;;;0.63;0.43;;;-2.50;99.90;;;;;;6189773;23;20013;-92
2022/12/10 07:57:22;;;;;;;0.85;0.85;;;-1.90;99.90;;;;;;6189752;23;20027;-96
2022/12/10 07:59:58;;;;;;;0.90;0.45;;;-2.40;99.90;;;;;;6191477;23;20023;-94
2022/12/10 08:02:30;;;;;;;0.73;0.60;;;-1.30;99.90;;;;;;6169740;23;20013;-90
2022/12/10 08:04:56;;;;;;;3.00;1.65;;;-1.50;99.90;;;;;;6213865;23;20553;-91
2022/12/10 08:07:24;;;;;;;6.33;1.07;;;-1.50;99.90;;;;;;6209971;23;20020;-94
2022/12/10 08:09:54;;;;;;;3.63;0.98;;;-2.80;99.90;;;;;;6160502;23;20050;-92
2022/12/10 08:12:25;;;;;;;5.00;0.75;;;-1.20;99.90;;;;;;6185012;23;20036;-93
2022/12/10 08:15:02;;;;;;;1.42;1.33;;;-1.30;99.90;;;;;;6161254;23;20449;-94
2022/12/10 08:17:37;;;;;;;2.10;1.97;;;-2.10;99.90;;;;;;6164433;23;20096;-93
2022/12/10 08:20:03;;;;;;;3.33;0.57;;;-1.30;99.90;;;;;;6185832;23;20258;-93
2022/12/10 08:22:38;;;;;;;;;;;;;;;;;;;;;
2022/12/10 08:25:07;;;;;;;2.92;1.40;;;-1.10;99.90;;;;;;6209798;23;20087;-91
2022/12/10 08:27:33;;;;;;;0.80;0.80;;;-2.30;99.90;;;;;;6185509;23;20091;-91
2022/12/10 08:30:02;;;;;;;5.03;1.17;;;-1.50;99.90;;;;;;6188918;23;20048;-90
2022/12/10 08:32:36;;;;;;;1.08;0.73;;;-3.10;99.90;;;;;;6191142;23;20020;-90
2022/12/10 08:35:05;;;;;;;0.82;0.82;;;-1.40;99.90;;;;;;6189543;23;20059;-90
2022/12/10 08:37:31;;;;;;;1.00;0.45;;;-2.40;99.90;;;;;;6165015;23;20131;-89
2022/12/10 08:40:08;;;;;;;0.63;0.63;;;-1.30;99.90;;;;;;6165630;23;20460;-90
2022/12/10 08:42:37;;;;;;;0.43;0.13;;;-0.90;99.90;;;;;;6189561;23;20016;-88
2022/12/10 08:45:14;;;;;;;2.38;0.47;;;-2.20;99.90;;;;;;6190055;23;20444;-89
2022/12/10 08:47:42;;;;;;;3.58;0.93;;;-3.20;99.90;;;;;;6191855;23;20016;-89
2022/12/10 08:50:10;;;;;;;1.27;1.27;;;-0.80;99.90;;;;;;6189602;23;20023;-89
2022/12/10 08:52:36;;;;;;;0.35;0.35;;;-1.10;99.90;;;;;;6189493;23;20017;-90
2022/12/10 08:55:02;;;;;;;1.67;0.43;;;-2.30;99.90;;;;;;6164982;23;20159;-89
2022/12/10 08:57:35;;;;;;;7.78;0.85;;;-2.30;99.90;;;;;;6214254;23;20128;-90
2022/12/10 09:00:01;;;;;;;1.08;0.57;;;-0.80;99.90;;;;;;6214269;23;20340;-90
2022/12/10 09:02:27;;;;;;;4.60;0.87;;;-2.00;99.90;;;;;;6189415;23;20055;-90
2022/12/10 09:04:58;;;;;;;5.03;0.77;;;-1.20;99.90;;;;;;6189335;23;20016;-89
2022/12/10 09:07:24;;;;;;;2.05;1.10;;;-0.90;99.90;;;;;;6214198;23;20016;-91
2022/12/10 09:09:49;;;;;;;1.73;0.43;;;-1.20;99.90;;;;;;6188755;23;20345;-90
2022/12/10 09:12:17;;;;;;;1.47;1.43;;;-1.20;99.90;;;;;;6189017;23;20020;-90
2022/12/10 09:14:43;;;;;;;3.10;1.45;;;-0.90;99.90;;;;;;6164379;23;20017;-89
2022/12/10 09:17:12;;;;;;;0.80;0.50;;;-1.10;99.90;;;;;;6188719;23;20026;-89
2022/12/10 09:19:39;;;;;;;1.70;0.70;;;-1.90;99.90;;;;;;6140374;23;20031;-90
2022/12/10 09:22:04;;;;;;;;;;;-2.00;99.90;;;;;;6188831;23;20016;-89
2022/12/10 09:24:32;;;;;;;2.15;1.48;;;-1.00;99.90;;;;;;6188537;23;19916;-88
2022/12/10 09:27:03;;;;;;;1.48;1.27;;;-1.90;99.90;;;;;;6188506;23;20338;-93
2022/12/10 09:29:39;;;;;;;2.50;0.95;;;-0.50;99.90;;;;;;6189087;23;20029;-95
2022/12/10 09:32:10;;;;;;;0.97;0.60;;;-0.70;99.90;;;;;;6184994;23;20348;-92
2022/12/10 09:34:41;;;;;;;2.65;1.35;;;-1.80;99.90;;;;;;6186293;23;20445;-96
2022/12/10 09:37:09;;;;;;;3.83;1.17;;;-0.80;99.90;;;;;;6188841;23;20458;-93
2022/12/10 09:39:35;;;;;;;3.25;0.95;;;-1.10;99.90;;;;;;6189335;23;20016;-94
2022/12/10 09:42:13;;;;;;;1.23;0.93;;;-1.70;99.90;;;;;;6188793;23;20023;-93
2022/12/10 09:44:55;;;;;;;0.45;0.45;;;-2.50;99.90;;;;;;6188138;23;20020;-94
2022/12/10 09:47:33;;;;;;;0.80;0.57;;;-2.40;99.90;;;;;;6213535;23;20017;-92
2022/12/10 09:50:18;;;;;;;4.82;2.10;;;-0.50;99.90;;;;;;6188673;23;20055;-91
2022/12/10 09:52:57;;;;;;;;;;;;;;;;;;;;;
2022/12/10 09:55:34;;;;;;;1.35;0.93;;;-0.60;99.90;;;;;;6213213;23;20017;-94
2022/12/10 09:58:03;;;;;;;2.60;0.98;;;-0.80;99.90;;;;;;6187883;23;20520;-91
2022/12/10 10:00:41;;;;;;;1.55;0.45;;;-0.50;99.90;;;;;;6188484;23;20017;-91
2022/12/10 10:03:16;;;;;;;0.60;0.60;;;-0.40;99.90;;;;;;6213540;23;20017;-92
2022/12/10 10:06:11;;;;;;;2.30;0.90;;;-1.60;99.90;;;;;;6163698;23;20028;-92
2022/12/10 10:08:50;;;;;;;3.00;1.23;;;-0.10;99.90;;;;;;6213768;23;20016;-91
2022/12/10 10:11:29;;;;;;;1.83;1.17;;;-1.50;99.90;;;;;;6188822;23;20017;-91
2022/12/10 10:14:11;;;;;;;0.70;0.52;;;-1.60;99.90;;;;;;6189448;23;20333;-91
2022/12/10 10:17:33;;;;;;;7.93;1.75;;;-1.50;99.90;;;;;;6188099;23;20056;-90
2022/12/10 10:20:02;;;;;;;7.50;1.55;;;-1.50;99.90;;;;;;6069473;23;20061;-91
2022/12/10 10:22:45;;;;;;;2.88;0.50;;;-1.70;99.90;;;;;;6190541;23;20031;-91
2022/12/10 10:25:21;;;;;;;4.75;1.23;;;-0.20;99.90;;;;;;6189881;23;20021;-91
2022/12/10 10:27:52;;;;;;;0.47;0.45;;;-1.90;99.90;;;;;;6188072;23;20017;-91
2022/12/10 10:30:24;;;;;;;2.20;1.65;;;-1.30;99.90;;;;;;6164782;23;20017;-90
2022/12/10 10:33:02;;;;;;;2.70;1.50;;;-0.10;99.90;;;;;;6188547;23;20374;-90
2022/12/10 10:35:41;;;;;;;2.83;1.23;;;-0.40;99.90;;;;;;6188705;23;20020;-90
2022/12/10 10:38:16;;;;;;;4.35;2.45;;;0.10;99.90;;;;;;6188560;23;20017;-90
2022/12/10 10:40:53;;;;;;;1.90;0.43;;;-0.20;99.90;;;;;;6188511;23;20024;-89
2022/12/10 10:43:35;;;;;;;5.00;1.55;;;-1.20;99.90;;;;;;6188945;23;20020;-89
2022/12/10 10:46:14;;;;;;;4.05;1.73;;;-0.30;99.90;;;;;;6188295;23;20079;-89
2022/12/10 10:48:40;;;;;;;1.35;0.85;;;-1.30;99.90;;;;;;6188266;23;20017;-89
2022/12/10 10:51:11;;;;;;;1.97;1.17;;;0.10;99.90;;;;;;6188333;23;20021;-89
2022/12/10 10:53:45;;;;;;;2.10;0.73;;;-1.20;99.90;;;;;;6213215;23;20306;-88
2022/12/10 10:56:21;;;;;;;3.00;1.63;;;-1.20;99.90;;;;;;6188207;23;20095;-88
2022/12/10 10:58:59;;;;;;;4.28;1.35;;;-1.30;99.90;;;;;;6187824;23;20023;-93
2022/12/10 11:01:43;;;;;;;4.28;1.08;;;-1.20;99.90;;;;;;6188686;23;20017;-88
2022/12/10 11:04:13;;;;;;;6.10;1.33;;;-0.20;99.90;;;;;;6187649;23;20020;-89
2022/12/10 11:06:41;;;;;;;0.82;0.50;;;-0.10;99.90;;;;;;6188261;23;20095;-88
2022/12/10 11:09:22;;;;;;;3.13;1.02;;;-1.00;99.90;;;;;;6163081;23;20052;-88
2022/12/10 11:12:02;;;;;;;2.38;0.52;;;-1.30;99.90;;;;;;6188025;23;20050;-92
2022/12/10 11:14:38;;;;;;;1.60;0.75;;;-1.20;99.90;;;;;;6188653;23;20091;-89
2022/12/10 11:17:10;;;;;;;0.95;0.70;;;-1.20;99.90;;;;;;6189576;23;20021;-89
2022/12/10 11:19:45;;;;;;;3.25;1.20;;;-0.70;99.90;;;;;;6190061;23;20024;-89
2022/12/10 11:22:28;;;;;;;1.70;1.20;;;-1.10;99.90;;;;;;6215257;23;20034;-88
2022/12/10 11:24:55;;;;;;;4.05;1.45;;;-2.30;99.90;;;;;;6189645;23;20021;-89
2022/12/10 11:27:38;;;;;;;2.28;1.20;;;-1.20;99.90;;;;;;6215209;23;20013;-89
2022/12/10 11:30:26;;;;;;;1.70;0.65;;;-1.00;99.90;;;;;;6189525;23;20021;-89
2022/12/10 11:33:32;;;;;;;1.03;1.03;;;-1.10;99.90;;;;;;6215665;23;20345;-92
2022/12/10 11:36:28;;;;;;;0.88;0.77;;;-1.10;99.90;;;;;;6189331;23;20274;-89
2022/12/10 11:39:07;;;;;;;2.60;0.82;;;-1.10;99.90;;;;;;6189706;23;20036;-92
2022/12/10 11:41:52;;;;;;;3.42;2.28;;;-1.10;99.90;;;;;;6189552;23;20024;-88
2022/12/10 11:44:33;;;;;;;0.60;0.60;;;-1.20;99.90;;;;;;6189824;23;20017;-88
2022/12/10 11:47:06;;;;;;;2.40;1.92;;;-1.20;99.90;;;;;;6189732;23;20020;-88
2022/12/10 11:49:34;;;;;;;0.63;0.63;;;-1.20;99.90;;;;;;6215525;23;20066;-88
2022/12/10 11:52:25;;;;;;;7.78;1.60;;;-1.20;99.90;;;;;;6189026;23;20343;-89
2022/12/10 11:55:18;;;;;;;0.65;0.65;;;-1.30;99.90;;;;;;6215071;23;20024;-88
2022/12/10 11:58:18;;;;;;;1.27;0.52;;;-1.30;99.90;;;;;;6190342;23;20016;-88
2022/12/10 12:01:10;;;;;;;5.55;1.13;;;-1.30;99.90;;;;;;6189351;23;20523;-88
2022/12/10 12:03:57;;;;;;;1.35;1.00;;;-1.30;99.90;;;;;;6163354;23;20020;-88
2022/12/10 12:06:40;;;;;;;1.15;0.68;;;-1.30;99.90;;;;;;6189387;23;20077;-88
2022/12/10 12:09:44;;;;;;;1.20;0.47;;;-1.30;99.90;;;;;;6189433;23;20020;-88
2022/12/10 12:12:13;;;;;;;1.27;0.65;;;-1.30;99.90;;;;;;6189070;23;20016;-92
2022/12/10 12:14:54;;;;;;;2.78;1.15;;;0.10;99.90;;;;;;6189895;23;20492;-88
2022/12/10 12:17:42;;;;;;;1.55;1.10;;;-1.30;99.90;;;;;;6189331;23;20016;-88
2022/12/10 12:20:17;;;;;;;2.38;0.77;;;-1.30;99.90;;;;;;6214135;23;20373;-88
2022/12/10 12:22:51;;;;;;;2.05;1.60;;;-1.20;99.90;;;;;;6189771;23;20059;-89
2022/12/10 12:25:26;;;;;;;2.22;0.47;;;-1.20;99.90;;;;;;6189459;23;20445;-88
2022/12/10 12:28:15;;;;;;;0.60;0.60;;;-1.20;99.90;;;;;;6189315;23;20285;-89
2022/12/10 12:30:45;;;;;;;4.72;1.35;;;0.00;99.90;;;;;;6163973;23;20082;-88
2022/12/10 12:33:28;;;;;;;2.33;0.52;;;-0.40;99.90;;;;;;6188836;23;20016;-89
2022/12/10 12:36:17;;;;;;;0.68;0.68;;;-1.10;99.90;;;;;;6189730;23;20027;-88
2022/12/10 12:38:50;;;;;;;5.22;1.33;;;-1.10;99.90;;;;;;6189473;23;20024;-88
2022/12/10 12:41:48;;;;;;;1.80;0.35;;;-0.90;99.90;;;;;;6189104;23;20020;-89
2022/12/10 12:44:45;;;;;;;2.65;1.05;;;-1.10;99.90;;;;;;6213924;23;20013;-88
2022/12/10 12:47:31;;;;;;;2.50;1.02;;;-1.10;99.90;;;;;;6189188;23;20024;-89
2022/12/10 12:49:59;;;;;;;0.40;0.40;;;-1.10;99.90;;;;;;6189385;23;20016;-88
2022/12/10 12:52:51;;;;;;;0.57;0.35;;;-0.80;99.90;;;;;;6189186;23;20517;-89
2022/12/10 12:55:22;;;;;;;1.10;0.65;;;-1.10;99.90;;;;;;6214059;23;20015;-89
2022/12/10 12:58:17;;;;;;;1.27;0.88;;;0.00;99.90;;;;;;6189277;23;20096;-89
2022/12/10 13:00:46;;;;;;;0.65;0.40;;;-1.10;99.90;;;;;;6188351;23;20029;-89
2022/12/10 13:03:32;;;;;;;5.68;1.00;;;-1.10;99.90;;;;;;6220146;23;20024;-90
2022/12/10 13:06:18;;;;;;;1.45;0.82;;;-1.00;99.90;;;;;;6196373;23;20385;-91
2022/12/10 13:08:58;;;;;;;2.80;1.35;;;0.00;99.90;;;;;;6171914;23;20349;-92
2022/12/10 13:11:35;;;;;;;4.43;1.27;;;-0.10;99.90;;;;;;6188296;23;20016;-86
2022/12/10 13:14:07;;;;;;;0.55;0.55;;;-0.10;99.90;;;;;;6164555;23;20019;-86
2022/12/10 13:16:45;;;;;;;2.50;1.13;;;-1.00;99.90;;;;;;6188374;23;20091;-87
2022/12/10 13:19:19;;;;;;;;;;;0.30;99.90;;;;;;6189655;23;20385;-87
2022/12/10 13:21:51;;;;;;;2.20;0.75;;;-1.00;99.90;;;;;;6188982;23;20229;-86
2022/12/10 13:24:35;;;;;;;0.20;0.20;;;-0.20;99.90;;;;;;6188848;23;20017;-87
2022/12/10 13:27:16;;;;;;;0.45;0.43;;;-0.40;99.90;;;;;;6188696;23;20021;-86
2022/12/10 13:29:56;;;;;;;0.50;0.30;;;-1.00;99.90;;;;;;6188830;23;20326;-88
2022/12/10 13:32:31;;;;;;;0.47;0.40;;;-1.00;99.90;;;;;;6188904;23;20357;-87
2022/12/10 13:35:09;;;;;;;3.40;0.43;;;-1.00;99.90;;;;;;6188675;23;20099;-86
2022/12/10 13:37:50;;;;;;;1.48;0.60;;;-1.00;99.90;;;;;;6188847;23;20116;-91
2022/12/10 13:46:32;;;;;;;5.32;1.35;;;-0.40;99.90;;;;;;6213237;23;20056;-88
2022/12/10 13:49:07;;;;;;;2.58;1.33;;;-0.60;99.90;;;;;;6187992;23;20052;-88
2022/12/10 13:51:47;;;;;;;2.75;1.55;;;-1.50;99.90;;;;;;6187716;23;20177;-86
2022/12/10 13:54:51;;;;;;;2.53;0.98;;;0.20;99.90;;;;;;6212975;23;20017;-91